ヘルシンキ/ヴァンター の空港の天気 - METARとTAF

ヘルシンキ・ヴァンター国際空港 ( EFHK / HEL ) - フィンランド ヴァンター
飛行場実況気象(Metar)
観測時間07/22 03:20 EEST (07/22 00:20 UTC)
風向・風速北 1m/s
視程10km以上
天気現象
なし
気温11℃
湿度87%
気圧1017hPa
METAREFHK 220020Z 01002KT CAVOK 11/09 Q1017 NOSIG
過去の天気等 Google飛行場航空写真 Wunderground天気予報

過去48時間のMETAR

飛行場予報(TAF)
発表時間: 7/22 02:26 EEST (7/21 23:26 UTC)
予報対象時間: 22日3時 EEST ~ 23日3時 EEST
風向・風速北北西 3m/s
視程10km以上
なし
22日4時 EEST から 確率 30% で
視程2,000m
天気現象もや
少しの雲 雲底高度 60m
22日11時 EEST ~ 22日13時 EEST に徐々に
全天の4割程度の積乱雲 雲底高度 910m
22日12時 EEST ~ 22日19時 EEST に 確率 40% で一時的に
視程6,000m
天気現象しゅう雨
22日19時 EEST ~ 22日21時 EEST に徐々に
視程10km以上
なし
TAF EFHK 212326Z 2200/2224 33006KT CAVOK
PROB30 2201/2205 2000 BR FEW002
BECMG 2208/2210 SCT030CB
PROB40 TEMPO 2209/2216 6000 SHRA
BECMG 2216/2218 CAVOK